createdAt,value
2023-03-01T00:01:28.396Z,16.05
2023-03-01T00:06:29.492Z,22.17
2023-03-01T00:11:32.606Z,17.75
2023-03-01T00:16:38.822Z,21.10
2023-03-01T00:21:40.155Z,18.83
2023-03-01T00:26:41.191Z,27.77
2023-03-01T00:31:41.923Z,20.25
2023-03-01T00:36:42.665Z,20.25
2023-03-01T00:41:43.730Z,23.73
2023-03-01T00:46:44.486Z,20.08
2023-03-01T00:51:45.242Z,21.75
2023-03-01T00:56:46.114Z,20.70
2023-03-01T01:01:46.925Z,17.40
2023-03-01T01:06:47.687Z,20.25
2023-03-01T01:11:50.872Z,20.77
2023-03-01T01:21:52.862Z,22.02
2023-03-01T01:26:53.714Z,24.52
2023-03-01T01:31:54.537Z,24.42
2023-03-01T01:36:55.562Z,23.02
2023-03-01T01:41:56.288Z,23.17
2023-03-01T01:47:13.220Z,26.98
2023-03-01T01:52:22.361Z,23.12
2023-03-01T01:57:33.161Z,21.95
2023-03-01T02:02:34.231Z,27.60
2023-03-01T02:07:35.258Z,25.20
2023-03-01T02:12:37.603Z,23.85
2023-03-01T02:17:38.563Z,25.33
2023-03-01T02:22:39.989Z,26.55
2023-03-01T02:28:32.141Z,25.02
2023-03-01T02:33:36.295Z,24.05
2023-03-01T02:38:37.124Z,22.65
2023-03-01T02:43:38.146Z,23.38
2023-03-01T02:48:48.523Z,23.25
2023-03-01T02:57:22.158Z,26.87
2023-03-01T03:02:38.737Z,26.27
2023-03-01T03:07:52.012Z,25.73
2023-03-01T03:12:58.996Z,25.80
2023-03-01T03:17:59.984Z,26.70
2023-03-01T03:23:01.118Z,25.02
2023-03-01T03:28:02.871Z,27.30
2023-03-01T03:33:03.690Z,24.92
2023-03-01T03:38:09.507Z,27.37
2023-03-01T03:43:22.152Z,26.70
2023-03-01T03:48:24.150Z,27.48
2023-03-01T03:53:27.148Z,30.80
2023-03-01T03:58:27.904Z,31.25
2023-03-01T04:03:30.404Z,31.23
2023-03-01T04:08:31.483Z,30.40
2023-03-01T04:13:32.424Z,25.17
2023-03-01T04:18:33.179Z,29.12
2023-03-01T04:23:34.223Z,29.27
2023-03-01T04:28:40.623Z,25.60
2023-03-01T04:33:55.637Z,29.98
2023-03-01T04:38:57.139Z,29.85
2023-03-01T04:44:00.245Z,30.60
2023-03-01T04:54:02.175Z,27.67
2023-03-01T04:59:05.845Z,28.48
2023-03-01T05:04:07.536Z,33.90
2023-03-01T05:09:08.512Z,35.75
2023-03-01T05:14:09.577Z,33.05
2023-03-01T05:19:15.686Z,33.70
2023-03-01T05:24:17.032Z,30.12
2023-03-01T05:29:25.325Z,33.35
2023-03-01T05:34:29.098Z,34.83
2023-03-01T05:39:31.730Z,33.25
2023-03-01T05:44:32.510Z,29.17
2023-03-01T05:49:33.398Z,36.03
2023-03-01T05:54:34.425Z,32.40
2023-03-01T05:59:35.326Z,33.88
2023-03-01T06:04:36.310Z,33.53
2023-03-01T06:09:37.051Z,35.08
2023-03-01T06:14:38.165Z,30.48
2023-03-01T06:19:38.928Z,35.72
2023-03-01T06:24:39.741Z,29.83
2023-03-01T06:29:42.482Z,35.15
2023-03-01T06:34:43.729Z,32.28
2023-03-01T06:39:44.448Z,36.78
2023-03-01T06:44:46.073Z,33.30
2023-03-01T06:49:46.811Z,35.53
2023-03-01T06:54:47.550Z,35.80
2023-03-01T06:59:48.509Z,32.10
2023-03-01T07:04:50.942Z,32.67
2023-03-01T07:09:51.694Z,31.90
2023-03-01T07:14:52.504Z,27.73
2023-03-01T07:19:53.375Z,27.60
2023-03-01T07:24:54.399Z,36.92
2023-03-01T07:29:55.150Z,28.12
2023-03-01T07:34:55.994Z,29.00
2023-03-01T07:39:57.176Z,26.00
2023-03-01T07:44:57.940Z,27.25
2023-03-01T07:49:58.680Z,30.12
2023-03-01T07:54:59.447Z,34.97
2023-03-01T08:00:00.197Z,30.95
2023-03-01T08:05:01.315Z,33.92
2023-03-01T08:10:02.579Z,29.25
2023-03-01T08:15:05.059Z,34.00
2023-03-01T08:20:07.309Z,25.52
2023-03-01T08:25:09.238Z,32.87
2023-03-01T08:30:11.344Z,26.85
2023-03-01T08:35:12.381Z,38.47
2023-03-01T08:40:14.254Z,31.65
2023-03-01T08:45:18.322Z,29.95
2023-03-01T08:50:19.075Z,31.08
2023-03-01T08:55:19.873Z,32.15
2023-03-01T09:00:21.578Z,35.03
2023-03-01T09:05:22.432Z,27.17
2023-03-01T09:10:23.347Z,36.08
2023-03-01T09:15:24.245Z,29.17
2023-03-01T09:20:25.082Z,30.65
2023-03-01T09:25:25.856Z,35.85
2023-03-01T09:30:26.699Z,29.80
2023-03-01T09:35:28.278Z,31.27
2023-03-01T09:40:30.078Z,27.05
2023-03-01T09:45:38.522Z,32.30
2023-03-01T09:50:43.698Z,31.92
2023-03-01T09:56:11.258Z,31.10
2023-03-01T10:01:35.443Z,29.95
2023-03-01T10:06:36.394Z,29.63
2023-03-01T10:11:40.577Z,30.25
2023-03-01T10:16:58.138Z,30.77
2023-03-01T10:22:04.721Z,31.67
2023-03-01T10:27:17.868Z,33.50
2023-03-01T10:32:18.979Z,34.67
2023-03-01T10:37:26.151Z,31.25
2023-03-01T10:42:50.042Z,34.33
2023-03-01T10:48:19.485Z,30.37
2023-03-01T10:53:25.354Z,32.47
2023-03-01T10:58:26.206Z,30.17
2023-03-01T11:03:38.539Z,29.08
2023-03-01T11:08:46.034Z,30.17
2023-03-01T11:13:59.121Z,33.00
2023-03-01T11:20:35.979Z,29.12
2023-03-01T11:25:42.021Z,26.42
2023-03-01T11:31:26.954Z,27.23
2023-03-01T11:39:19.188Z,27.40
2023-03-01T11:44:32.060Z,27.35
2023-03-01T11:56:35.097Z,28.05
2023-03-01T12:02:19.381Z,27.20
2023-03-01T12:07:57.376Z,26.17
2023-03-01T12:16:42.553Z,28.95
2023-03-01T12:22:31.225Z,22.77
2023-03-01T12:30:52.822Z,24.23
2023-03-01T12:37:54.375Z,22.00
2023-03-01T12:46:06.238Z,21.37
2023-03-01T12:51:12.064Z,20.10
2023-03-01T12:56:18.782Z,23.42
2023-03-01T13:01:53.378Z,23.73
2023-03-01T13:07:24.963Z,24.35
2023-03-01T13:12:47.370Z,25.12
2023-03-01T13:17:50.168Z,24.35
2023-03-01T13:23:13.094Z,21.90
2023-03-01T13:35:04.971Z,24.10
2023-03-01T13:41:50.426Z,19.25
2023-03-01T13:46:53.743Z,23.05
2023-03-01T13:51:54.918Z,20.92
2023-03-01T13:56:58.086Z,27.02
2023-03-01T14:07:24.481Z,19.02
2023-03-01T14:13:16.118Z,19.80
2023-03-01T14:18:39.282Z,22.62
2023-03-01T14:23:42.384Z,20.60
2023-03-01T14:28:43.469Z,17.83
2023-03-01T14:33:55.679Z,20.20
2023-03-01T14:39:04.887Z,20.65
2023-03-01T14:44:13.465Z,15.90
2023-03-01T14:49:21.212Z,17.83
2023-03-01T14:54:59.502Z,19.15
2023-03-01T15:00:05.442Z,18.35
2023-03-01T15:05:09.399Z,19.50
2023-03-01T15:10:21.470Z,20.25
2023-03-01T15:15:38.108Z,16.33
2023-03-01T15:20:39.198Z,15.10
2023-03-01T15:25:45.191Z,16.27
2023-03-01T15:30:52.896Z,20.60
2023-03-01T15:35:56.957Z,18.02
2023-03-01T15:41:00.160Z,18.98
2023-03-01T15:46:01.595Z,18.98
2023-03-01T15:51:02.881Z,17.33
2023-03-01T15:56:07.504Z,18.70
2023-03-01T16:01:15.171Z,17.55
2023-03-01T16:06:16.054Z,15.93
2023-03-01T16:11:19.548Z,15.57
2023-03-01T16:16:21.194Z,15.50
2023-03-01T16:21:24.918Z,15.13
2023-03-01T16:26:25.962Z,18.67
2023-03-01T16:31:27.328Z,17.37
2023-03-01T16:36:28.700Z,19.08
2023-03-01T16:41:30.097Z,15.68
2023-03-01T16:46:31.283Z,15.25
2023-03-01T16:51:35.132Z,17.95
2023-03-01T16:56:37.835Z,17.62
2023-03-01T17:01:41.136Z,14.38
2023-03-01T17:06:42.057Z,18.02
2023-03-01T17:11:43.754Z,18.60
2023-03-01T17:16:45.255Z,17.20
2023-03-01T17:21:46.394Z,15.00
2023-03-01T17:26:47.161Z,18.42
2023-03-01T17:31:48.266Z,18.25
2023-03-01T17:36:51.335Z,20.62
2023-03-01T17:41:52.352Z,22.27
2023-03-01T17:46:53.140Z,16.10
2023-03-01T17:51:53.966Z,17.75
2023-03-01T17:56:55.787Z,18.80
2023-03-01T18:02:01.201Z,15.60
2023-03-01T18:07:02.141Z,18.08
2023-03-01T18:12:03.074Z,17.42
2023-03-01T18:17:11.309Z,20.60
2023-03-01T18:22:12.615Z,20.48
2023-03-01T18:27:14.025Z,14.95
2023-03-01T18:32:15.047Z,15.60
2023-03-01T18:37:17.287Z,17.35
2023-03-01T18:42:19.938Z,15.30
2023-03-01T18:47:20.722Z,18.05
2023-03-01T18:52:21.741Z,15.82
2023-03-01T18:57:22.512Z,16.65
2023-03-01T19:02:23.304Z,16.25
2023-03-01T19:07:24.734Z,21.00
2023-03-01T19:12:27.333Z,15.68
2023-03-01T19:17:30.362Z,19.15
2023-03-01T19:22:31.272Z,16.25
2023-03-01T19:27:32.157Z,21.12
2023-03-01T19:32:33.195Z,17.15
2023-03-01T19:37:34.584Z,16.37
2023-03-01T19:42:35.480Z,17.15
2023-03-01T19:47:36.352Z,19.62
2023-03-01T19:52:37.263Z,14.60
2023-03-01T19:57:38.060Z,16.23
2023-03-01T20:02:38.947Z,22.25
2023-03-01T20:07:40.026Z,19.20
2023-03-01T20:12:40.846Z,20.05
2023-03-01T20:17:41.665Z,17.77
2023-03-01T20:22:42.730Z,20.08
2023-03-01T20:27:46.761Z,21.37
2023-03-01T20:32:47.504Z,22.02
2023-03-01T20:37:51.801Z,19.58
2023-03-01T20:42:52.793Z,25.92
2023-03-01T20:47:54.775Z,20.85
2023-03-01T20:52:55.516Z,19.48
2023-03-01T20:57:56.418Z,21.20
2023-03-01T21:02:58.064Z,22.85
2023-03-01T21:08:01.938Z,21.55
2023-03-01T21:13:02.761Z,27.20
2023-03-01T21:18:03.628Z,22.37
2023-03-01T21:23:04.386Z,24.08
2023-03-01T21:28:05.169Z,23.87
2023-03-01T21:33:05.924Z,22.08
2023-03-01T21:38:06.779Z,22.75
2023-03-01T21:43:07.533Z,19.23
2023-03-01T21:48:08.303Z,19.42
2023-03-01T21:53:09.052Z,23.73
2023-03-01T21:58:10.118Z,26.55
2023-03-01T22:03:11.048Z,22.23
2023-03-01T22:08:11.934Z,22.92
2023-03-01T22:13:12.717Z,23.12
2023-03-01T22:18:13.686Z,22.83
2023-03-01T22:23:14.412Z,23.02
2023-03-01T22:28:15.198Z,21.50
2023-03-01T22:33:15.947Z,21.77
2023-03-01T22:38:16.861Z,22.58
2023-03-01T22:43:17.604Z,23.92
2023-03-01T22:48:18.392Z,24.42
2023-03-01T22:53:19.150Z,24.98
2023-03-01T22:58:20.781Z,24.92
2023-03-01T23:03:21.590Z,24.15
2023-03-01T23:08:22.463Z,29.58
2023-03-01T23:13:23.392Z,29.30
2023-03-01T23:18:24.328Z,24.10
2023-03-01T23:23:25.124Z,26.05
2023-03-01T23:28:26.077Z,24.85
2023-03-01T23:33:28.738Z,32.10
2023-03-01T23:38:29.716Z,27.92
2023-03-01T23:43:32.320Z,30.83
2023-03-01T23:48:33.428Z,25.70
2023-03-01T23:53:38.648Z,27.70
2023-03-01T23:58:39.682Z,33.83
